Time;durP1;ratioP1;P1;durP2;ratioP2;P2;SDS_P1;SDS_P2;PMS_P1;PMS_P2;Temp;Humidity;BMP_temperature;BMP_pressure;BME280_temperature;BME280_humidity;BME280_pressure;Samples;Min_cycle;Max_cycle;Signal;HPM_P1;HPM_P2
2023/04/08 00:02:24;;;;;;;12.10;10.50;;;;;;;5.71;75.01;101038.91;102539;278;114375;-64
2023/04/08 00:05:00;;;;;;;11.20;9.90;;;;;;;5.73;75.03;101034.64;102456;278;95490;-63
2023/04/08 00:07:43;;;;;;;13.50;11.30;;;;;;;5.68;75.12;101032.58;102564;278;96889;-59
2023/04/08 00:10:26;;;;;;;16.30;13.30;;;;;;;5.69;75.07;101034.02;102522;278;119830;-60
2023/04/08 00:13:06;;;;;;;17.80;14.90;;;;;;;5.68;75.03;101033.71;102541;277;105661;-60
2023/04/08 00:15:48;;;;;;;17.40;14.60;;;;;;;5.66;74.99;101034.45;102497;278;114323;-62
2023/04/08 00:18:23;;;;;;;19.00;15.00;;;;;;;5.67;75.00;101042.59;102517;278;93776;-63
2023/04/08 00:20:58;;;;;;;16.90;13.90;;;;;;;5.65;75.13;101044.51;102558;277;96771;-62
2023/04/08 00:23:32;;;;;;;16.60;12.80;;;;;;;5.61;75.11;101046.02;102544;278;120439;-63
2023/04/08 00:26:11;;;;;;;12.50;10.20;;;;;;;5.60;75.13;101048.55;102594;278;105539;-59
2023/04/08 00:28:52;;;;;;;12.20;9.70;;;;;;;5.60;75.19;101045.70;102601;278;113806;-59
2023/04/08 00:31:29;;;;;;;12.80;10.10;;;;;;;5.63;75.26;101042.90;102605;278;93236;-60
2023/04/08 00:34:08;;;;;;;12.60;10.70;;;;;;;5.66;75.32;101045.84;102617;278;96674;-60
2023/04/08 00:36:46;;;;;;;14.30;10.80;;;;;;;5.69;75.28;101045.95;102594;278;119525;-59
2023/04/08 00:39:26;;;;;;;12.80;10.80;;;;;;;5.68;75.33;101040.17;102568;278;106158;-60
2023/04/08 00:42:03;;;;;;;12.10;10.30;;;;;;;5.68;75.27;101039.61;102597;278;114253;-60
2023/04/08 00:44:43;;;;;;;11.70;10.20;;;;;;;5.69;75.24;101045.38;102584;278;95953;-60
2023/04/08 00:47:21;;;;;;;11.10;9.40;;;;;;;5.65;75.25;101051.14;102561;278;98012;-59
2023/04/08 00:50:02;;;;;;;10.50;9.50;;;;;;;5.62;75.17;101047.31;102559;278;121288;-58
2023/04/08 00:52:49;;;;;;;11.30;9.80;;;;;;;5.59;75.16;101055.47;102602;278;103713;-58
2023/04/08 00:55:29;;;;;;;10.50;9.40;;;;;;;5.55;75.10;101051.20;102557;278;114019;-63
2023/04/08 00:58:06;;;;;;;11.10;9.80;;;;;;;5.51;75.18;101050.87;102570;278;92566;-63
2023/04/08 01:00:51;;;;;;;10.90;9.10;;;;;;;5.47;75.17;101056.19;102574;278;97492;-60
2023/04/08 01:03:44;;;;;;;11.30;9.90;;;;;;;5.44;75.11;101057.42;102581;277;120411;-59
2023/04/08 01:06:32;;;;;;;10.80;9.50;;;;;;;5.40;75.25;101062.99;102594;278;106092;-59
2023/04/08 01:09:11;;;;;;;9.70;8.30;;;;;;;5.36;75.21;101070.07;102615;278;112594;-59
2023/04/08 01:11:52;;;;;;;12.00;8.80;;;;;;;5.37;75.28;101070.19;102610;278;95904;-56
2023/04/08 01:14:46;;;;;;;11.20;9.30;;;;;;;5.41;75.31;101070.95;102593;277;97896;-57
2023/04/08 01:17:28;;;;;;;11.80;9.70;;;;;;;5.44;75.38;101069.50;102569;266;121064;-59
2023/04/08 01:20:10;;;;;;;11.10;9.10;;;;;;;5.45;75.44;101066.96;102558;278;105160;-60
2023/04/08 01:23:03;;;;;;;12.60;9.90;;;;;;;5.42;75.51;101066.88;102554;278;114974;-62
2023/04/08 01:25:41;;;;;;;10.70;9.30;;;;;;;5.40;75.48;101070.83;102625;278;96311;-59
2023/04/08 01:28:22;;;;;;;11.10;9.90;;;;;;;5.36;75.36;101077.23;102558;278;96659;-59
2023/04/08 01:31:00;;;;;;;11.30;9.60;;;;;;;5.31;75.55;101078.77;102586;278;119447;-59
2023/04/08 01:33:38;;;;;;;10.90;9.10;;;;;;;5.29;75.67;101078.97;102608;278;104704;-58
2023/04/08 01:36:12;;;;;;;13.50;10.50;;;;;;;5.25;75.74;101079.27;102607;278;114239;-58
2023/04/08 01:38:48;;;;;;;11.40;9.70;;;;;;;5.20;75.77;101082.92;102582;278;93606;-59
2023/04/08 01:41:34;;;;;;;12.00;9.90;;;;;;;5.12;75.71;101083.55;102638;278;97773;-61
2023/04/08 01:44:11;;;;;;;12.70;9.40;;;;;;;5.02;75.69;101079.61;102569;278;121290;-62
2023/04/08 01:46:59;;;;;;;11.60;9.50;;;;;;;4.91;75.60;101079.39;102584;278;105761;-54
2023/04/08 01:49:39;;;;;;;11.70;9.40;;;;;;;4.79;75.80;101081.71;102587;278;114642;-56
2023/04/08 01:52:21;;;;;;;12.60;10.50;;;;;;;4.71;75.88;101078.64;102580;278;93373;-57
2023/04/08 01:55:06;;;;;;;11.80;9.90;;;;;;;4.66;76.02;101077.09;102583;278;98125;-56
2023/04/08 01:57:55;;;;;;;11.50;9.70;;;;;;;4.61;76.15;101080.94;102572;278;119028;-59
2023/04/08 02:00:32;;;;;;;14.30;11.20;;;;;;;4.53;76.03;101085.04;102570;278;105281;-61
2023/04/08 02:03:10;;;;;;;12.40;10.40;;;;;;;4.44;76.12;101085.69;102569;278;114885;-61
2023/04/08 02:05:52;;;;;;;11.50;9.90;;;;;;;4.36;76.08;101087.36;102587;278;95336;-56
2023/04/08 02:08:30;;;;;;;12.10;9.80;;;;;;;4.26;76.33;101099.05;102579;278;97953;-55
2023/04/08 02:11:06;;;;;;;12.50;10.00;;;;;;;4.17;76.48;101109.26;102560;278;121085;-63
2023/04/08 02:13:46;;;;;;;13.50;9.80;;;;;;;4.11;76.63;101112.06;102581;278;106105;-62
2023/04/08 02:16:32;;;;;;;13.80;10.70;;;;;;;4.07;76.71;101112.05;102573;266;114549;-62
2023/04/08 02:19:16;;;;;;;14.10;11.30;;;;;;;4.04;76.73;101109.69;102550;278;93095;-61
2023/04/08 02:22:03;;;;;;;14.10;11.20;;;;;;;3.98;76.89;101108.73;102556;278;95612;-57
2023/04/08 02:24:43;;;;;;;14.60;10.80;;;;;;;3.89;76.91;101113.48;102586;278;120937;-57
2023/04/08 02:27:27;;;;;;;14.20;10.80;;;;;;;3.72;76.88;101113.84;102551;278;105521;-56
2023/04/08 02:30:07;;;;;;;13.10;10.50;;;;;;;3.54;76.94;101114.28;102545;278;113905;-56
2023/04/08 02:32:43;;;;;;;12.10;10.30;;;;;;;3.38;76.95;101116.54;102497;278;95688;-58
2023/04/08 02:35:23;;;;;;;13.40;10.90;;;;;;;3.25;77.04;101117.06;102563;277;97707;-58
2023/04/08 02:38:08;;;;;;;14.30;10.30;;;;;;;3.14;77.20;101123.14;102554;278;119998;-59
2023/04/08 02:40:48;;;;;;;14.40;10.90;;;;;;;2.95;77.29;101126.94;102558;278;105886;-57
2023/04/08 02:43:31;;;;;;;14.60;11.10;;;;;;;2.84;77.50;101123.91;102536;278;113936;-57
2023/04/08 02:46:15;;;;;;;16.20;11.70;;;;;;;2.76;77.62;101124.55;102619;278;93442;-55
2023/04/08 02:49:00;;;;;;;15.10;11.60;;;;;;;2.69;77.73;101130.34;102553;278;98336;-56
2023/04/08 02:51:37;;;;;;;13.80;11.10;;;;;;;2.54;77.78;101138.29;102537;278;121482;-59
2023/04/08 02:54:17;;;;;;;15.90;11.90;;;;;;;2.39;78.02;101136.94;102555;278;106031;-59
2023/04/08 02:57:00;;;;;;;16.40;12.00;;;;;;;2.32;78.22;101140.54;102538;278;114260;-58
2023/04/08 02:59:37;;;;;;;14.40;10.60;;;;;;;2.26;78.20;101141.20;102522;278;95570;-57
2023/04/08 03:02:19;;;;;;;13.20;10.90;;;;;;;2.19;78.36;101146.34;102594;278;98196;-62
2023/04/08 03:05:02;;;;;;;15.60;11.60;;;;;;;2.12;78.60;101154.19;102529;278;121562;-62
2023/04/08 03:07:41;;;;;;;16.50;11.90;;;;;;;2.02;78.73;101156.40;102499;278;105200;-56
2023/04/08 03:10:21;;;;;;;15.80;12.10;;;;;;;1.95;78.87;101160.87;102544;278;114413;-59
2023/04/08 03:13:03;;;;;;;17.40;11.80;;;;;;;1.89;78.86;101166.58;102519;278;96291;-58
2023/04/08 03:15:46;;;;;;;14.90;11.60;;;;;;;1.80;79.01;101171.34;102538;278;98033;-61
2023/04/08 03:18:22;;;;;;;15.10;11.20;;;;;;;1.75;79.19;101174.23;102557;277;119483;-61
2023/04/08 03:21:02;;;;;;;15.10;11.70;;;;;;;1.73;79.24;101176.13;102598;278;104360;-58
2023/04/08 03:23:45;;;;;;;17.00;12.50;;;;;;;1.71;79.44;101177.35;102517;278;114295;-58
2023/04/08 03:26:23;;;;;;;17.00;13.10;;;;;;;1.70;79.51;101179.23;102475;279;95761;-56
2023/04/08 03:29:12;;;;;;;15.70;11.60;;;;;;;1.63;79.72;101183.44;102533;278;97850;-56
2023/04/08 03:31:53;;;;;;;15.50;11.50;;;;;;;1.52;79.77;101184.98;102543;278;121037;-60
2023/04/08 03:34:29;;;;;;;15.50;11.40;;;;;;;1.46;79.93;101184.89;102527;278;105901;-61
2023/04/08 03:37:09;;;;;;;15.70;11.40;;;;;;;1.40;80.01;101189.59;102628;277;115096;-62
2023/04/08 03:39:54;;;;;;;15.00;10.90;;;;;;;1.38;80.08;101192.12;102530;278;96426;-62
2023/04/08 03:42:42;;;;;;;18.40;12.10;;;;;;;1.35;80.18;101193.56;102608;278;97951;-59
2023/04/08 03:45:23;;;;;;;44.60;21.40;;;;;;;1.33;80.17;101196.20;102570;278;120164;-58
2023/04/08 03:48:03;;;;;;;30.30;17.10;;;;;;;1.32;80.28;101194.69;102613;278;105924;-58
2023/04/08 03:50:43;;;;;;;27.60;16.60;;;;;;;1.26;80.34;101193.86;102615;278;115100;-59
2023/04/08 03:53:28;;;;;;;36.70;18.60;;;;;;;1.20;80.36;101199.23;102519;278;95346;-58
2023/04/08 03:56:07;;;;;;;38.30;19.30;;;;;;;1.11;80.45;101199.40;102621;278;98111;-58
2023/04/08 03:58:45;;;;;;;33.80;17.90;;;;;;;1.03;80.55;101203.48;102074;278;633770;-58
2023/04/08 04:01:28;;;;;;;34.50;18.40;;;;;;;1.00;80.71;101198.56;102517;278;105618;-59
2023/04/08 04:04:08;;;;;;;31.90;17.40;;;;;;;0.97;80.82;101202.68;102555;278;114040;-60
2023/04/08 04:06:47;;;;;;;29.50;17.00;;;;;;;0.93;80.86;101202.81;102544;278;95525;-61
2023/04/08 04:09:37;;;;;;;30.20;16.90;;;;;;;0.96;81.01;101207.39;102586;278;98232;-61
2023/04/08 04:12:14;;;;;;;25.60;16.20;;;;;;;0.99;81.06;101208.22;102607;278;120973;-59
2023/04/08 04:14:59;;;;;;;23.00;14.60;;;;;;;1.04;81.09;101209.32;102588;278;106040;-59
2023/04/08 04:17:35;;;;;;;22.20;14.70;;;;;;;1.06;81.15;101213.02;102615;278;114416;-59
2023/04/08 04:20:13;;;;;;;23.80;15.40;;;;;;;1.06;81.38;101209.66;102635;278;92719;-58
2023/04/08 04:22:55;;;;;;;24.60;15.20;;;;;;;1.06;81.31;101211.29;102600;278;98099;-61
2023/04/08 04:25:44;;;;;;;20.30;13.80;;;;;;;1.07;81.39;101211.52;102556;278;121055;-60
2023/04/08 04:28:29;;;;;;;22.80;14.70;;;;;;;1.10;81.50;101216.62;102607;278;105273;-61
2023/04/08 04:31:08;;;;;;;20.70;13.60;;;;;;;1.15;81.53;101219.81;102602;278;113159;-56
2023/04/08 04:33:49;;;;;;;22.80;15.30;;;;;;;1.21;81.63;101225.64;102576;278;95031;-58
2023/04/08 04:36:31;;;;;;;22.60;13.40;;;;;;;1.26;81.85;101228.63;102620;278;98138;-61
2023/04/08 04:39:16;;;;;;;21.10;14.50;;;;;;;1.36;81.91;101234.27;102569;278;120385;-61
2023/04/08 04:41:55;;;;;;;17.80;12.40;;;;;;;2.00;82.27;101229.19;102566;278;105199;-62
2023/04/08 04:44:35;;;;;;;17.90;12.30;;;;;;;3.41;82.05;101229.83;102574;278;115039;-61
2023/04/08 04:47:12;;;;;;;17.10;12.90;;;;;;;4.56;81.19;101228.75;102574;278;93511;-57
2023/04/08 04:49:52;;;;;;;17.10;12.60;;;;;;;5.27;80.31;101234.88;102579;278;97985;-55
2023/04/08 04:52:31;;;;;;;17.50;12.40;;;;;;;6.05;79.69;101234.61;102605;278;121520;-58
2023/04/08 04:55:09;;;;;;;15.50;12.50;;;;;;;6.84;79.14;101230.93;102600;278;105559;-59
2023/04/08 04:57:51;;;;;;;17.30;12.50;;;;;;;6.93;78.65;101231.11;102590;278;114611;-59
2023/04/08 05:00:34;;;;;;;19.10;14.30;;;;;;;7.30;78.23;101230.21;102595;278;93351;-60
2023/04/08 05:03:21;;;;;;;19.00;14.80;;;;;;;7.62;77.69;101232.42;102641;278;98500;-61
2023/04/08 05:06:05;;;;;;;18.90;14.00;;;;;;;7.93;77.13;101236.61;102635;278;119902;-61
2023/04/08 05:08:44;;;;;;;16.60;13.20;;;;;;;7.82;76.64;101239.98;102605;278;105781;-61
2023/04/08 05:11:22;;;;;;;15.30;12.50;;;;;;;7.73;76.30;101237.64;102638;278;113892;-61
2023/04/08 05:14:01;;;;;;;15.80;12.40;;;;;;;7.93;76.32;101236.14;102548;278;94355;-62
2023/04/08 05:16:39;;;;;;;15.50;12.90;;;;;;;8.49;75.47;101235.55;102630;278;97734;-59
2023/04/08 05:19:23;;;;;;;14.60;11.90;;;;;;;8.51;74.79;101236.93;102617;278;119789;-58
2023/04/08 05:22:05;;;;;;;15.20;12.50;;;;;;;9.15;74.17;101239.24;102613;278;105671;-62
2023/04/08 05:24:42;;;;;;;14.60;12.40;;;;;;;9.98;73.97;101241.15;102577;278;114496;-59
2023/04/08 05:27:22;;;;;;;14.60;12.30;;;;;;;10.98;73.39;101237.09;102613;278;92714;-58
2023/04/08 05:30:01;;;;;;;14.60;12.70;;;;;;;12.32;72.50;101237.38;102602;278;97711;-59
2023/04/08 05:32:43;;;;;;;14.40;11.70;;;;;;;13.57;69.64;101239.10;102635;278;119439;-56
2023/04/08 05:35:22;;;;;;;13.00;11.60;;;;;;;14.69;68.37;101240.08;102583;278;105925;-59
2023/04/08 05:38:02;;;;;;;12.00;10.80;;;;;;;15.63;66.21;101236.38;102593;278;114527;-59
2023/04/08 05:40:41;;;;;;;12.30;10.70;;;;;;;16.29;64.75;101240.36;102605;278;94806;-58
2023/04/08 05:43:23;;;;;;;12.50;11.20;;;;;;;16.76;63.33;101238.09;102623;278;97973;-59
2023/04/08 05:46:08;;;;;;;12.00;10.60;;;;;;;17.19;60.93;101236.09;102580;278;120887;-62
2023/04/08 05:48:55;;;;;;;11.10;10.00;;;;;;;17.46;57.79;101237.56;102569;278;104099;-62
2023/04/08 05:51:36;;;;;;;11.60;10.20;;;;;;;18.40;58.36;101234.56;102571;278;113856;-63
2023/04/08 05:54:20;;;;;;;10.30;9.30;;;;;;;18.69;57.06;101237.10;102557;278;94379;-62
2023/04/08 05:57:04;;;;;;;11.00;9.90;;;;;;;18.21;55.41;101241.84;102588;278;97676;-59
2023/04/08 05:59:41;;;;;;;10.60;9.60;;;;;;;18.06;54.68;101249.02;102575;266;120688;-60
2023/04/08 06:02:24;;;;;;;10.40;9.20;;;;;;;18.93;54.46;101249.77;102563;278;106115;-61
2023/04/08 06:05:00;;;;;;;10.20;9.20;;;;;;;19.56;53.64;101252.12;102545;278;114853;-62
2023/04/08 06:07:37;;;;;;;9.60;8.70;;;;;;;20.20;51.76;101251.95;102575;278;94595;-58
2023/04/08 06:10:14;;;;;;;9.80;8.90;;;;;;;19.92;50.33;101249.10;102608;278;97439;-57
2023/04/08 06:12:56;;;;;;;10.40;9.40;;;;;;;20.45;48.96;101252.54;102548;278;120868;-59
2023/04/08 06:15:40;;;;;;;10.00;9.00;;;;;;;20.38;45.72;101252.56;102587;278;105420;-58
2023/04/08 06:18:27;;;;;;;9.50;8.60;;;;;;;20.81;48.34;101252.73;102564;278;115123;-57
2023/04/08 06:21:06;;;;;;;9.10;8.30;;;;;;;21.05;47.18;101253.73;102567;278;95045;-59
2023/04/08 06:23:45;;;;;;;9.40;8.50;;;;;;;21.68;46.87;101248.81;102538;278;97718;-60
2023/04/08 06:26:28;;;;;;;9.00;8.10;;;;;;;22.14;46.44;101248.70;102553;278;121168;-57
2023/04/08 06:29:07;;;;;;;8.50;7.70;;;;;;;22.14;44.66;101252.30;102577;278;105866;-56
2023/04/08 06:31:48;;;;;;;9.10;8.30;;;;;;;21.53;44.27;101258.58;102573;278;115209;-59
2023/04/08 06:34:23;;;;;;;8.90;8.00;;;;;;;21.60;43.21;101256.94;102557;278;94541;-58
2023/04/08 06:37:02;;;;;;;8.80;7.90;;;;;;;22.04;43.07;101262.70;102605;278;97503;-59
2023/04/08 06:39:39;;;;;;;8.00;7.30;;;;;;;21.64;43.07;101258.63;102573;278;120459;-59
2023/04/08 06:42:16;;;;;;;9.30;8.30;;;;;;;22.07;43.14;101258.70;102552;278;105651;-59
2023/04/08 06:44:58;;;;;;;9.10;8.30;;;;;;;22.19;42.68;101260.73;102517;278;113949;-59
2023/04/08 06:47:48;;;;;;;8.80;8.00;;;;;;;21.19;42.35;101261.15;102536;277;94768;-56
2023/04/08 06:50:29;;;;;;;10.20;9.30;;;;;;;21.26;41.16;101269.50;102556;278;97065;-59
2023/04/08 06:53:13;;;;;;;10.30;9.40;;;;;;;21.25;41.44;101266.79;102559;277;120670;-58
2023/04/08 06:55:59;;;;;;;9.00;8.20;;;;;;;20.89;42.15;101263.70;102536;278;105166;-57
2023/04/08 06:58:42;;;;;;;9.40;8.60;;;;;;;20.73;42.08;101267.69;102569;278;114354;-57
2023/04/08 07:01:19;;;;;;;10.20;8.20;;;;;;;21.58;42.25;101269.91;102525;278;93929;-59
2023/04/08 07:03:57;;;;;;;10.50;9.40;;;;;;;22.61;41.60;101274.00;102560;278;97970;-60
2023/04/08 07:06:34;;;;;;;9.30;8.40;;;;;;;23.22;39.49;101268.95;102566;278;120422;-60
2023/04/08 07:09:19;;;;;;;9.10;8.30;;;;;;;23.51;40.60;101267.65;102536;278;105420;-59
2023/04/08 07:12:03;;;;;;;9.30;8.40;;;;;;;24.28;39.85;101270.92;102536;278;115472;-57
2023/04/08 07:14:49;;;;;;;8.30;7.60;;;;;;;24.22;38.88;101270.95;102537;278;96339;-56
2023/04/08 07:17:32;;;;;;;8.80;8.10;;;;;;;24.48;38.76;101270.55;102549;278;97948;-59
2023/04/08 07:20:07;;;;;;;;;;;;;;;24.35;38.52;101274.69;102530;277;121338;-59
2023/04/08 07:22:49;;;;;;;8.40;7.70;;;;;;;24.27;38.44;101275.99;102580;278;104844;-60
2023/04/08 07:25:32;;;;;;;8.80;8.00;;;;;;;24.52;36.58;101273.96;102560;278;114293;-58
2023/04/08 07:28:07;;;;;;;8.70;7.80;;;;;;;24.75;36.72;101277.58;102555;277;94803;-58
2023/04/08 07:30:43;;;;;;;7.60;6.90;;;;;;;24.44;36.18;101273.30;102566;277;96630;-57
2023/04/08 07:33:19;;;;;;;8.10;7.40;;;;;;;24.27;36.75;101270.23;102544;278;119852;-58
2023/04/08 07:35:57;;;;;;;8.20;7.50;;;;;;;24.89;36.48;101276.84;102499;278;105946;-60
2023/04/08 07:38:36;;;;;;;8.20;7.40;;;;;;;25.15;36.67;101274.52;102590;278;114256;-59
2023/04/08 07:41:16;;;;;;;8.70;7.90;;;;;;;25.19;37.01;101275.28;102645;278;93315;-59
2023/04/08 07:43:56;;;;;;;9.10;8.30;;;;;;;24.87;36.48;101275.64;102615;278;97864;-59
2023/04/08 07:46:38;;;;;;;8.90;8.10;;;;;;;24.91;36.07;101274.27;102582;278;121384;-62
2023/04/08 07:49:15;;;;;;;8.10;7.30;;;;;;;25.02;35.49;101273.42;102665;278;105417;-62
2023/04/08 07:51:54;;;;;;;7.70;7.10;;;;;;;25.29;33.93;101272.20;102597;278;115090;-57
2023/04/08 07:54:41;;;;;;;7.60;7.00;;;;;;;25.41;34.90;101274.39;102567;278;94710;-57
2023/04/08 07:57:17;;;;;;;7.50;6.80;;;;;;;25.97;34.63;101279.64;102626;278;97941;-62
2023/04/08 07:59:56;;;;;;;7.80;7.10;;;;;;;25.65;33.14;101279.44;102601;278;120595;-62
2023/04/08 08:02:35;;;;;;;7.90;7.20;;;;;;;26.00;33.94;101276.65;102599;278;106456;-59
2023/04/08 08:05:12;;;;;;;8.00;7.00;;;;;;;26.35;33.50;101282.96;102604;278;114417;-60
2023/04/08 08:07:50;;;;;;;7.00;6.40;;;;;;;26.30;34.27;101274.64;102564;278;95115;-62
2023/04/08 08:10:30;;;;;;;7.10;6.50;;;;;;;26.36;34.29;101273.82;102592;278;98290;-59
2023/04/08 08:13:20;;;;;;;7.10;6.40;;;;;;;26.71;33.29;101278.08;102601;278;120578;-59
2023/04/08 08:16:03;;;;;;;6.50;6.00;;;;;;;26.83;33.03;101278.45;102558;277;105453;-62
2023/04/08 08:18:46;;;;;;;7.00;6.40;;;;;;;26.81;32.31;101281.10;102543;278;114929;-63
2023/04/08 08:21:26;;;;;;;6.90;6.30;;;;;;;26.75;31.93;101278.02;102554;270;93879;-60
2023/04/08 08:24:05;;;;;;;7.40;6.80;;;;;;;26.54;33.22;101267.18;102586;278;98088;-59
2023/04/08 08:26:43;;;;;;;7.10;6.50;;;;;;;26.72;32.85;101265.48;102597;278;120836;-63
2023/04/08 08:29:23;;;;;;;7.00;6.40;;;;;;;26.79;32.90;101270.73;102648;278;104455;-63
2023/04/08 08:32:02;;;;;;;6.90;6.30;;;;;;;26.17;32.08;101271.68;102580;278;114690;-56
2023/04/08 08:34:47;;;;;;;7.00;6.50;;;;;;;26.35;32.28;101268.23;102586;278;95045;-58
2023/04/08 08:37:27;;;;;;;7.00;6.40;;;;;;;26.41;32.10;101272.13;102635;278;98438;-60
2023/04/08 08:40:08;;;;;;;6.60;6.00;;;;;;;26.39;31.88;101268.57;102612;278;119681;-60
2023/04/08 08:42:52;;;;;;;7.10;6.50;;;;;;;26.53;31.84;101274.00;102648;278;103613;-60
2023/04/08 08:45:39;;;;;;;6.90;6.30;;;;;;;26.44;31.47;101271.64;102634;278;113869;-60
2023/04/08 08:48:23;;;;;;;7.40;6.70;;;;;;;26.64;30.49;101269.63;102598;278;94675;-59
2023/04/08 08:51:10;;;;;;;7.30;6.70;;;;;;;26.10;30.03;101271.27;102621;278;97440;-60
2023/04/08 08:53:54;;;;;;;7.20;6.70;;;;;;;25.90;30.63;101267.18;102617;278;119991;-59
2023/04/08 08:56:35;;;;;;;6.60;6.00;;;;;;;25.68;30.77;101266.86;102649;278;104978;-59
2023/04/08 08:59:16;;;;;;;6.20;5.70;;;;;;;26.01;31.20;101268.23;102628;278;113509;-59
2023/04/08 09:01:55;;;;;;;6.90;6.30;;;;;;;26.00;30.06;101268.63;102666;278;93612;-56
2023/04/08 09:04:29;;;;;;;7.10;6.50;;;;;;;25.52;29.68;101272.65;102611;278;97715;-57
2023/04/08 09:07:17;;;;;;;6.70;6.00;;;;;;;24.83;30.58;101275.88;102627;278;120871;-62
2023/04/08 09:09:56;;;;;;;6.20;5.70;;;;;;;24.99;30.71;101272.63;102635;278;105838;-62
2023/04/08 09:12:53;;;;;;;6.70;6.20;;;;;;;25.12;30.61;101269.97;102594;278;114941;-59
2023/04/08 09:15:29;;;;;;;6.60;6.10;;;;;;;24.82;30.58;101269.79;102584;278;92514;-58
2023/04/08 09:18:27;;;;;;;7.50;6.80;;;;;;;25.20;30.51;101271.80;102614;278;96404;-60
2023/04/08 09:21:08;;;;;;;8.10;7.40;;;;;;;25.27;30.33;101274.35;102602;278;121256;-60
2023/04/08 09:23:52;;;;;;;7.10;6.50;;;;;;;24.69;30.10;101281.03;102601;278;105460;-59
2023/04/08 09:26:34;;;;;;;6.20;5.70;;;;;;;24.46;30.74;101275.38;102581;278;114666;-59
2023/04/08 09:29:10;;;;;;;7.20;6.50;;;;;;;23.92;30.07;101276.67;102542;278;95370;-58
2023/04/08 09:31:56;;;;;;;7.20;6.60;;;;;;;23.60;30.36;101284.50;102577;278;97589;-59
2023/04/08 09:34:40;;;;;;;7.30;6.60;;;;;;;23.34;30.96;101282.66;102588;278;119741;-58
2023/04/08 09:37:17;;;;;;;7.10;6.40;;;;;;;22.96;32.10;101282.89;102500;278;104954;-62
2023/04/08 09:40:01;;;;;;;7.50;6.80;;;;;;;22.63;32.07;101288.08;102551;278;114682;-62
2023/04/08 09:42:49;;;;;;;7.70;7.00;;;;;;;21.57;32.04;101284.36;102570;277;94164;-56
2023/04/08 09:45:33;;;;;;;7.90;7.10;;;;;;;20.84;33.20;101287.14;102577;278;97539;-57
2023/04/08 09:48:21;;;;;;;8.60;7.60;;;;;;;20.08;33.89;101282.53;102556;278;119947;-56
2023/04/08 09:51:09;;;;;;;8.40;7.60;;;;;;;19.46;34.72;101281.05;102606;278;104492;-60
2023/04/08 09:53:55;;;;;;;8.40;7.60;;;;;;;18.91;34.88;101288.91;102564;278;114966;-59
2023/04/08 09:56:41;;;;;;;8.30;7.50;;;;;;;18.50;34.87;101287.73;102537;278;94626;-57
2023/04/08 09:59:27;;;;;;;9.60;8.00;;;;;;;18.38;35.32;101286.77;102581;278;98651;-57
2023/04/08 10:02:12;;;;;;;9.10;8.30;;;;;;;18.28;35.58;101289.23;102543;278;119852;-59
2023/04/08 10:04:52;;;;;;;7.80;7.00;;;;;;;18.29;36.06;101283.30;102559;278;105634;-59
2023/04/08 10:07:36;;;;;;;8.60;7.60;;;;;;;18.11;36.56;101282.62;102564;278;113147;-59
2023/04/08 10:10:23;;;;;;;9.00;8.10;;;;;;;17.81;36.57;101280.36;102571;278;93803;-59
2023/04/08 10:13:00;;;;;;;8.10;7.30;;;;;;;17.67;36.89;101278.98;102577;278;96616;-57
2023/04/08 10:15:38;;;;;;;7.90;7.10;;;;;;;17.32;37.06;101276.63;102537;278;120751;-58
2023/04/08 10:18:35;;;;;;;7.90;7.10;;;;;;;17.29;37.29;101279.15;102520;278;105545;-58
2023/04/08 10:21:36;;;;;;;7.80;7.10;;;;;;;16.92;37.19;101277.90;102598;278;114743;-63
2023/04/08 10:24:24;;;;;;;8.60;7.80;;;;;;;16.89;37.48;101276.17;102558;278;94470;-62
2023/04/08 10:27:39;;;;;;;8.10;7.30;;;;;;;16.82;37.81;101272.89;102548;278;97024;-58
2023/04/08 10:30:44;;;;;;;7.50;6.70;;;;;;;16.75;37.61;101275.36;102578;278;121426;-59
2023/04/08 10:33:25;;;;;;;8.40;7.00;;;;;;;16.83;37.57;101267.38;102580;277;106071;-59
2023/04/08 10:36:11;;;;;;;8.20;7.40;;;;;;;16.72;37.93;101270.70;102564;278;114886;-62
2023/04/08 10:38:52;;;;;;;8.10;7.30;;;;;;;16.61;38.09;101265.27;102554;278;95250;-62
2023/04/08 10:41:35;;;;;;;7.90;7.10;;;;;;;16.46;38.57;101264.92;102584;278;97187;-57
2023/04/08 10:44:23;;;;;;;8.50;7.70;;;;;;;16.64;38.78;101266.73;102542;278;121062;-57
2023/04/08 10:47:07;;;;;;;9.10;8.10;;;;;;;16.58;38.70;101267.16;102561;278;105213;-60
2023/04/08 10:49:50;;;;;;;8.40;7.50;;;;;;;16.67;38.97;101260.41;102548;278;114194;-63
2023/04/08 10:52:26;;;;;;;8.50;7.60;;;;;;;16.47;39.07;101265.17;102527;278;95337;-59
2023/04/08 10:55:05;;;;;;;8.30;7.50;;;;;;;16.29;38.17;101269.24;102588;278;98022;-59
2023/04/08 10:57:46;;;;;;;9.00;7.50;;;;;;;16.18;38.87;101264.91;102586;277;120932;-58
2023/04/08 11:00:38;;;;;;;8.30;7.50;;;;;;;16.18;38.93;101262.36;102493;278;106869;-57
2023/04/08 11:03:19;;;;;;;8.50;7.60;;;;;;;16.15;38.87;101261.92;102527;277;114402;-57
2023/04/08 11:06:00;;;;;;;9.50;7.30;;;;;;;16.12;38.78;101256.11;102566;278;95020;-61
2023/04/08 11:08:38;;;;;;;7.40;6.70;;;;;;;16.03;38.81;101255.59;102586;278;97596;-62
2023/04/08 11:11:20;;;;;;;7.30;6.60;;;;;;;15.97;39.02;101251.34;102578;278;119143;-57
2023/04/08 11:13:59;;;;;;;8.00;7.00;;;;;;;15.80;39.26;101251.30;102521;278;105874;-54
2023/04/08 11:16:37;;;;;;;8.60;7.40;;;;;;;15.70;39.23;101250.14;102557;278;114235;-62
2023/04/08 11:19:21;;;;;;;7.50;6.70;;;;;;;15.75;39.59;101246.34;102517;278;94815;-61
2023/04/08 11:22:06;;;;;;;7.80;6.90;;;;;;;15.83;39.72;101253.02;102503;278;97840;-59
2023/04/08 11:24:46;;;;;;;6.60;5.90;;;;;;;15.77;39.56;101248.11;102511;278;121004;-59
2023/04/08 11:27:24;;;;;;;7.70;6.90;;;;;;;15.49;39.72;101248.26;102571;278;106004;-57
2023/04/08 11:30:00;;;;;;;7.30;6.60;;;;;;;15.38;39.77;101240.23;102507;278;114303;-55
2023/04/08 11:32:37;;;;;;;7.30;6.60;;;;;;;15.54;40.28;101240.95;102560;278;94081;-62
2023/04/08 11:35:12;;;;;;;6.30;5.70;;;;;;;15.52;39.93;101247.42;102521;278;97402;-61
2023/04/08 11:38:00;;;;;;;6.80;6.10;;;;;;;15.36;40.21;101238.60;102566;278;121191;-57
2023/04/08 11:40:55;;;;;;;8.10;7.30;;;;;;;15.33;40.16;101238.33;102558;266;105888;-58
2023/04/08 11:43:36;;;;;;;7.90;7.20;;;;;;;15.28;40.28;101232.97;102553;277;114076;-58
2023/04/08 11:46:25;;;;;;;6.80;6.00;;;;;;;15.32;40.59;101234.02;102619;278;94702;-59
2023/04/08 11:49:10;;;;;;;6.60;5.70;;;;;;;15.40;40.65;101237.02;102607;278;98311;-59
2023/04/08 11:52:00;;;;;;;6.70;5.90;;;;;;;15.46;40.89;101236.11;102594;278;120664;-59
2023/04/08 11:54:48;;;;;;;6.40;5.80;;;;;;;15.33;40.76;101238.48;102599;278;105554;-59
2023/04/08 11:57:31;;;;;;;6.20;5.60;;;;;;;15.38;41.07;101239.27;102112;278;630376;-57
2023/04/08 12:00:11;;;;;;;6.20;5.00;;;;;;;15.50;40.98;101232.58;102454;278;95027;-56
2023/04/08 12:02:53;;;;;;;5.60;5.00;;;;;;;15.61;40.65;101230.77;102524;278;97830;-62
2023/04/08 12:05:29;;;;;;;5.60;5.00;;;;;;;15.49;40.28;101231.91;102542;278;121151;-58
2023/04/08 12:08:06;;;;;;;7.00;5.50;;;;;;;15.31;40.36;101223.11;102498;278;105928;-59
2023/04/08 12:10:50;;;;;;;6.50;5.40;;;;;;;15.35;40.34;101216.42;102519;278;114300;-57
2023/04/08 12:13:27;;;;;;;5.40;4.90;;;;;;;15.52;40.43;101215.27;102551;278;94051;-56
2023/04/08 12:16:06;;;;;;;6.30;5.70;;;;;;;15.57;40.38;101218.47;102510;278;98079;-62
2023/04/08 12:18:43;;;;;;;5.80;5.10;;;;;;;15.48;41.26;101214.73;102520;278;120218;-61
2023/04/08 12:21:21;;;;;;;6.60;5.70;;;;;;;15.48;41.40;101214.64;102566;278;106015;-59
2023/04/08 12:24:08;;;;;;;5.90;5.30;;;;;;;15.37;41.81;101214.02;102484;278;113555;-58